Algiers Airport, Algeria

5:53 PM CET on February 12, 2016 (GMT +0100)
Houari Boumediene | | Change Station
CLOSE
Current Station
Airport
Location: Algiers Airport,
Elevation: 82 ft
Nearby Weather Stations

Elev 82 ft 36.69 °N, 3.22 °E | Updated 23 minutes ago

Mostly Cloudy
Mostly Cloudy
68 °F
Feels Like 68 °F
N
18
Wind Variable Wind from WSW
Gusts 31 mph

Today
High -- | Low -- °F
--% Chance of Precip.
Yesterday
High -- | Low -- °F
Precip. -- in
Pressure 29.92 in
Visibility 6.2 miles
Clouds Few 2600 ft
Scattered Clouds 5000 ft
Mostly Cloudy 20000 ft
Dew Point 52 °F
Humidity 56%
Rainfall 0.00 in
Snow Depth Not available.
7:39 AM 6:23 PM
Waxing Crescent, 22% visible
METAR DAAG 121630Z 25016G27KT 220V280 9999 FEW026 SCT050 BKN200 20/11 Q1013
Pressure 29.92 in
Visibility 6.2 miles
Clouds Few 2600 ft
Scattered Clouds 5000 ft
Mostly Cloudy 20000 ft
Dew Point 52 °F
Humidity 56%
Rainfall 0.00 in
Snow Depth Not available.
7:39 AM 6:23 PM
Waxing Crescent, 22% visible
METAR DAAG 121630Z 25016G27KT 220V280 9999 FEW026 SCT050 BKN200 20/11 Q1013

10-Day Weather Forecast

No radar image for this location.
×

Almanac

Astronomy

Feb. 12, 2016 Rise Set
Actual Time
Civil Twilight
Nautical Twilight
Astronomical Twilight
Moon
Length of Visible Light
Length of Day
Tomorrow will be .
, % of the Moon is Illuminated

Today's Extremes

Country Highs Country Lows

Community

WunderPhotos

Upload Photos

1,892,354 photos uploaded!

WunderBlog® & News

Nearby

Air Quality

  Air Quality AQ Index Pollutant
Not available.

Snow Depth

Station Depth Elevation

Earthquake Activity

City Distance Mag. Time & Date
Minimum magnitude displayed is 2.5.

Coastal Water Temperatures

Place Temperature

Stations

Nearby Weather Stations

Station Location Temp. Windchill Dew Point Humidity Wind Precip. Elev Updated Type